createdAt,value
2019-05-20T00:02:28.346Z,12.77
2019-05-20T00:04:57.363Z,12.20
2019-05-20T00:07:27.695Z,9.50
2019-05-20T00:09:58.118Z,11.87
2019-05-20T00:12:28.623Z,12.80
2019-05-20T00:15:00.713Z,11.73
2019-05-20T00:17:31.145Z,9.37
2019-05-20T00:20:01.668Z,14.23
2019-05-20T00:22:32.350Z,11.60
2019-05-20T00:25:02.745Z,13.40
2019-05-20T00:27:33.383Z,16.35
2019-05-20T00:30:03.805Z,15.70
2019-05-20T00:32:41.008Z,16.40
2019-05-20T00:35:06.919Z,16.03
2019-05-20T00:37:37.324Z,16.57
2019-05-20T00:40:09.237Z,13.47
2019-05-20T00:42:39.649Z,17.57
2019-05-20T00:45:10.295Z,15.90
2019-05-20T00:47:40.669Z,15.00
2019-05-20T00:50:11.411Z,12.93
2019-05-20T00:52:41.887Z,13.00
2019-05-20T00:55:26.080Z,17.52
2019-05-20T00:57:56.498Z,14.53
2019-05-20T01:00:27.276Z,11.95
2019-05-20T01:02:57.762Z,13.03
2019-05-20T01:05:28.287Z,14.57
2019-05-20T01:07:58.698Z,14.13
2019-05-20T01:10:29.070Z,12.90
2019-05-20T01:12:59.574Z,10.00
2019-05-20T01:15:29.922Z,13.40
2019-05-20T01:18:00.275Z,10.10
2019-05-20T01:20:30.876Z,14.60
2019-05-20T01:23:01.291Z,14.80
2019-05-20T01:25:31.656Z,11.07
2019-05-20T01:28:02.016Z,12.43
2019-05-20T01:30:32.454Z,10.20
2019-05-20T01:33:13.474Z,15.32
2019-05-20T01:35:34.869Z,13.90
2019-05-20T01:38:05.495Z,18.90
2019-05-20T01:40:35.865Z,12.10
2019-05-20T01:43:06.342Z,11.23
2019-05-20T01:45:36.785Z,13.70
2019-05-20T01:48:07.201Z,11.70
2019-05-20T01:50:37.576Z,12.53
2019-05-20T01:53:07.989Z,12.27
2019-05-20T01:55:38.854Z,12.53
2019-05-20T01:58:09.505Z,11.87
2019-05-20T02:00:39.962Z,12.53
2019-05-20T02:03:10.378Z,12.63
2019-05-20T02:05:40.743Z,12.43
2019-05-20T02:08:11.137Z,13.07
2019-05-20T02:10:41.595Z,12.63
2019-05-20T02:13:11.925Z,12.30
2019-05-20T02:15:51.772Z,14.77
2019-05-20T02:18:22.193Z,13.93
2019-05-20T02:20:52.635Z,12.63
2019-05-20T02:23:23.191Z,12.20
2019-05-20T02:25:53.570Z,14.07
2019-05-20T02:28:23.934Z,11.50
2019-05-20T02:30:56.938Z,12.37
2019-05-20T02:33:26.497Z,12.07
2019-05-20T02:35:56.955Z,12.33
2019-05-20T02:38:27.395Z,11.23
2019-05-20T02:40:57.757Z,12.20
2019-05-20T02:43:28.089Z,13.20
2019-05-20T02:45:58.444Z,15.40
2019-05-20T02:48:28.770Z,11.40
2019-05-20T02:50:59.169Z,11.27
2019-05-20T02:53:29.580Z,12.57
2019-05-20T02:55:59.994Z,13.40
2019-05-20T02:58:30.421Z,12.73
2019-05-20T03:01:00.872Z,12.77
2019-05-20T03:03:31.302Z,14.67
2019-05-20T03:06:01.730Z,12.57
2019-05-20T03:08:32.066Z,12.97
2019-05-20T03:11:02.442Z,13.63
2019-05-20T03:13:32.966Z,12.30
2019-05-20T03:16:03.357Z,16.50
2019-05-20T03:18:33.913Z,17.70
2019-05-20T03:21:04.323Z,18.95
2019-05-20T03:23:34.761Z,16.20
2019-05-20T03:26:05.207Z,14.87
2019-05-20T03:28:35.572Z,14.00
2019-05-20T03:31:07.002Z,12.50
2019-05-20T03:33:37.371Z,13.07
2019-05-20T03:36:08.042Z,14.93
2019-05-20T03:38:38.451Z,14.27
2019-05-20T03:41:08.875Z,12.93
2019-05-20T03:43:39.351Z,12.87
2019-05-20T03:46:09.794Z,14.17
2019-05-20T03:48:40.282Z,12.37
2019-05-20T03:51:10.691Z,15.63
2019-05-20T03:53:41.218Z,15.57
2019-05-20T03:56:11.781Z,12.97
2019-05-20T03:58:42.205Z,14.87
2019-05-20T04:01:12.591Z,16.03
2019-05-20T04:03:42.988Z,15.37
2019-05-20T04:06:13.354Z,13.77
2019-05-20T04:08:47.058Z,14.47
2019-05-20T04:11:17.475Z,17.60
2019-05-20T04:13:47.816Z,15.80
2019-05-20T04:16:18.255Z,17.27
2019-05-20T04:18:48.587Z,14.70
2019-05-20T04:21:19.034Z,14.57
2019-05-20T04:23:49.770Z,13.13
2019-05-20T04:26:21.374Z,16.43
2019-05-20T04:28:52.153Z,19.00
2019-05-20T04:31:22.883Z,15.83
2019-05-20T04:33:53.306Z,16.83
2019-05-20T04:36:23.778Z,17.40
2019-05-20T04:38:58.065Z,13.77
2019-05-20T04:41:28.605Z,14.53
2019-05-20T04:43:58.990Z,16.33
2019-05-20T04:46:29.678Z,14.03
2019-05-20T04:49:00.067Z,14.17
2019-05-20T04:51:30.554Z,16.52
2019-05-20T04:54:00.902Z,16.20
2019-05-20T04:56:31.407Z,13.47
2019-05-20T04:59:01.768Z,12.57
2019-05-20T05:01:32.273Z,11.93
2019-05-20T05:04:02.650Z,14.77
2019-05-20T05:06:33.093Z,13.17
2019-05-20T05:09:04.820Z,16.40
2019-05-20T05:11:35.244Z,10.63
2019-05-20T05:14:05.711Z,11.53
2019-05-20T05:16:36.072Z,13.37
2019-05-20T05:19:06.417Z,12.23
2019-05-20T05:21:36.796Z,13.17
2019-05-20T05:24:07.246Z,12.43
2019-05-20T05:26:37.711Z,13.60
2019-05-20T05:29:09.207Z,12.37
2019-05-20T05:31:39.585Z,11.23
2019-05-20T05:34:09.929Z,12.60
2019-05-20T05:36:40.435Z,11.10
2019-05-20T05:39:10.775Z,10.80
2019-05-20T05:41:41.150Z,12.97
2019-05-20T05:44:11.594Z,11.43
2019-05-20T05:46:42.020Z,12.07
2019-05-20T05:49:12.458Z,10.43
2019-05-20T05:51:42.832Z,10.50
2019-05-20T05:54:13.266Z,11.77
2019-05-20T05:56:43.760Z,8.63
2019-05-20T05:59:14.090Z,9.00
2019-05-20T06:01:44.475Z,10.72
2019-05-20T06:04:14.922Z,8.87
2019-05-20T06:06:45.297Z,7.37
2019-05-20T06:09:15.753Z,9.37
2019-05-20T06:11:46.102Z,9.90
2019-05-20T06:14:17.558Z,7.97
2019-05-20T06:16:47.927Z,7.47
2019-05-20T06:19:18.288Z,8.77
2019-05-20T06:21:48.708Z,7.73
2019-05-20T06:24:19.189Z,8.47
2019-05-20T06:26:49.697Z,9.63
2019-05-20T06:29:20.170Z,6.57
2019-05-20T06:31:50.774Z,7.80
2019-05-20T06:34:21.133Z,7.87
2019-05-20T06:36:53.153Z,9.03
2019-05-20T06:39:23.537Z,6.83
2019-05-20T06:41:53.957Z,10.20
2019-05-20T06:44:24.309Z,12.07
2019-05-20T06:46:54.854Z,10.87
2019-05-20T06:49:25.241Z,8.67
2019-05-20T06:51:55.609Z,9.20
2019-05-20T06:54:26.155Z,11.93
2019-05-20T06:56:56.785Z,9.93
2019-05-20T06:59:27.328Z,9.80
2019-05-20T07:01:57.864Z,6.97
2019-05-20T07:04:28.391Z,8.13
2019-05-20T07:06:58.742Z,8.73
2019-05-20T07:09:29.160Z,8.97
2019-05-20T07:11:59.694Z,7.90
2019-05-20T07:14:30.071Z,6.10
2019-05-20T07:17:00.515Z,9.23
2019-05-20T07:19:30.935Z,6.27
2019-05-20T07:22:01.403Z,8.10
2019-05-20T07:24:31.887Z,6.20
2019-05-20T07:27:02.490Z,6.73
2019-05-20T07:29:32.961Z,7.77
2019-05-20T07:32:03.362Z,9.93
2019-05-20T07:34:33.914Z,6.33
2019-05-20T07:37:04.411Z,6.13
2019-05-20T07:39:34.853Z,7.40
2019-05-20T07:42:05.376Z,7.30
2019-05-20T07:44:35.963Z,7.97
2019-05-20T07:47:06.947Z,5.77
2019-05-20T07:49:37.589Z,7.47
2019-05-20T07:52:07.978Z,5.43
2019-05-20T07:54:38.463Z,4.77
2019-05-20T07:57:12.147Z,6.57
2019-05-20T07:59:45.109Z,5.30
2019-05-20T08:02:15.846Z,5.53
2019-05-20T08:04:47.321Z,6.77
2019-05-20T08:07:27.379Z,7.03
2019-05-20T08:09:49.880Z,6.70
2019-05-20T08:12:20.374Z,6.37
2019-05-20T08:14:50.821Z,7.37
2019-05-20T08:17:21.244Z,6.73
2019-05-20T08:19:51.654Z,8.07
2019-05-20T08:22:22.080Z,7.20
2019-05-20T08:24:52.429Z,7.45
2019-05-20T08:27:22.844Z,6.40
2019-05-20T08:29:53.167Z,6.47
2019-05-20T08:32:24.828Z,6.20
2019-05-20T08:34:55.560Z,8.93
2019-05-20T08:37:26.013Z,8.80
2019-05-20T08:39:56.568Z,8.07
2019-05-20T08:42:27.026Z,11.63
2019-05-20T08:44:57.505Z,10.93
2019-05-20T08:47:27.932Z,7.43
2019-05-20T08:49:58.302Z,11.60
2019-05-20T08:52:28.717Z,8.53
2019-05-20T08:54:59.208Z,10.33
2019-05-20T08:57:29.664Z,9.80
2019-05-20T09:00:00.005Z,7.43
2019-05-20T09:02:30.522Z,9.43
2019-05-20T09:05:00.934Z,7.83
2019-05-20T09:07:31.378Z,8.17
2019-05-20T09:10:01.902Z,7.80
2019-05-20T09:12:32.386Z,7.07
2019-05-20T09:15:02.747Z,6.87
2019-05-20T09:17:33.460Z,6.97
2019-05-20T09:20:03.921Z,8.08
2019-05-20T09:22:34.337Z,9.10
2019-05-20T09:25:05.495Z,6.97
2019-05-20T09:27:37.653Z,6.87
2019-05-20T09:30:09.071Z,7.77
2019-05-20T09:32:42.956Z,6.23
2019-05-20T09:35:12.460Z,7.87
2019-05-20T09:37:42.954Z,6.28
2019-05-20T09:40:17.838Z,9.80
2019-05-20T09:42:48.343Z,6.57
2019-05-20T09:45:18.793Z,7.40
2019-05-20T09:47:49.410Z,8.13
2019-05-20T09:50:19.821Z,11.10
2019-05-20T09:52:50.379Z,8.70
2019-05-20T09:55:20.799Z,5.78
2019-05-20T09:57:51.342Z,9.10
2019-05-20T10:00:22.086Z,6.28
2019-05-20T10:02:52.596Z,5.92
2019-05-20T10:05:23.032Z,7.78
2019-05-20T10:07:53.487Z,5.10
2019-05-20T10:10:23.910Z,6.60
2019-05-20T10:12:54.413Z,6.37
2019-05-20T10:15:25.224Z,6.80
2019-05-20T10:17:55.590Z,5.47
2019-05-20T10:20:26.142Z,5.03
2019-05-20T10:22:56.909Z,6.42
2019-05-20T10:25:27.343Z,6.12
2019-05-20T10:27:57.967Z,6.42
2019-05-20T10:30:28.588Z,5.80
2019-05-20T10:32:59.013Z,5.15
2019-05-20T10:35:29.538Z,6.80
2019-05-20T10:38:00.067Z,4.75
2019-05-20T10:40:30.428Z,6.42
2019-05-20T10:43:00.989Z,8.60
2019-05-20T10:45:33.074Z,4.55
2019-05-20T10:48:08.375Z,4.58
2019-05-20T10:50:36.725Z,4.87
2019-05-20T10:53:08.265Z,6.45
2019-05-20T10:55:38.694Z,4.97
2019-05-20T10:58:09.258Z,5.87
2019-05-20T11:00:39.803Z,7.42
2019-05-20T11:03:10.263Z,7.70
2019-05-20T11:05:40.746Z,5.60
2019-05-20T11:08:11.183Z,4.85
2019-05-20T11:10:41.655Z,7.62
2019-05-20T11:13:12.102Z,3.83
2019-05-20T11:15:42.631Z,8.28
2019-05-20T11:18:13.076Z,5.95
2019-05-20T11:20:43.463Z,4.00
2019-05-20T11:23:13.883Z,4.53
2019-05-20T11:25:44.390Z,3.75
2019-05-20T11:28:14.844Z,5.92
2019-05-20T11:30:45.350Z,5.22
2019-05-20T11:33:15.790Z,5.25
2019-05-20T11:35:46.159Z,3.55
2019-05-20T11:38:16.630Z,7.78
2019-05-20T11:40:47.731Z,4.62
2019-05-20T11:43:18.157Z,4.92
2019-05-20T11:45:48.547Z,3.05
2019-05-20T11:48:19.172Z,6.25
2019-05-20T11:50:49.568Z,3.58
2019-05-20T11:53:20.032Z,6.22
2019-05-20T11:55:50.381Z,3.58
2019-05-20T11:58:20.983Z,5.10
2019-05-20T12:00:52.525Z,3.30
2019-05-20T12:03:23.100Z,5.75
2019-05-20T12:05:53.555Z,4.08
2019-05-20T12:08:24.065Z,6.78
2019-05-20T12:10:54.470Z,5.30
2019-05-20T12:13:24.851Z,3.25
2019-05-20T12:15:55.271Z,2.70
2019-05-20T12:18:25.720Z,3.00
2019-05-20T12:20:56.162Z,5.67
2019-05-20T12:23:26.534Z,3.62
2019-05-20T12:25:56.975Z,3.30
2019-05-20T12:28:27.405Z,2.33
2019-05-20T12:30:57.754Z,5.85
2019-05-20T12:33:28.265Z,5.00
2019-05-20T12:35:58.692Z,6.92
2019-05-20T12:38:29.082Z,3.52
2019-05-20T12:40:59.501Z,1.75
2019-05-20T12:43:29.868Z,3.02
2019-05-20T12:46:00.308Z,1.72
2019-05-20T12:48:30.818Z,4.83
2019-05-20T12:51:01.164Z,5.15
2019-05-20T12:53:31.625Z,2.90
2019-05-20T12:56:01.966Z,3.15
2019-05-20T12:58:32.531Z,3.67
2019-05-20T13:01:02.899Z,1.70
2019-05-20T13:03:33.441Z,2.62
2019-05-20T13:06:03.857Z,1.92
2019-05-20T13:08:35.422Z,3.47
2019-05-20T13:11:05.864Z,5.35
2019-05-20T13:13:36.379Z,2.20
2019-05-20T13:16:06.852Z,3.85
2019-05-20T13:18:37.436Z,3.85
2019-05-20T13:21:08.934Z,1.95
2019-05-20T13:23:39.409Z,1.57
2019-05-20T13:26:09.760Z,1.75
2019-05-20T13:28:40.176Z,1.77
2019-05-20T13:31:10.531Z,3.15
2019-05-20T13:33:40.896Z,1.85
2019-05-20T13:36:11.235Z,3.52
2019-05-20T13:38:41.751Z,3.45
2019-05-20T13:41:12.224Z,2.27
2019-05-20T13:43:42.756Z,1.37
2019-05-20T13:46:13.234Z,2.40
2019-05-20T13:48:43.713Z,3.37
2019-05-20T13:51:14.038Z,4.67
2019-05-20T13:53:44.555Z,1.20
2019-05-20T13:56:14.961Z,2.20
2019-05-20T13:58:45.442Z,3.05
2019-05-20T14:01:15.950Z,2.30
2019-05-20T14:03:46.436Z,2.20
2019-05-20T14:06:16.773Z,3.85
2019-05-20T14:08:47.263Z,3.87
2019-05-20T14:11:17.629Z,2.27
2019-05-20T14:13:48.014Z,2.08
2019-05-20T14:16:18.449Z,2.15
2019-05-20T14:18:48.835Z,3.17
2019-05-20T14:21:19.183Z,2.37
2019-05-20T14:23:49.758Z,3.33
2019-05-20T14:26:20.176Z,2.92
2019-05-20T14:28:50.819Z,1.80
2019-05-20T14:31:21.232Z,3.83
2019-05-20T14:33:51.657Z,2.87
2019-05-20T14:36:38.799Z,2.47
2019-05-20T14:38:54.211Z,2.25
2019-05-20T14:41:25.656Z,4.30
2019-05-20T14:43:56.126Z,1.25
2019-05-20T14:46:26.819Z,1.40
2019-05-20T14:49:01.673Z,0.75
2019-05-20T14:51:29.308Z,1.87
2019-05-20T14:53:59.797Z,1.05
2019-05-20T14:56:30.201Z,1.00
2019-05-20T14:59:00.566Z,5.25
2019-05-20T15:01:31.010Z,8.25
2019-05-20T15:04:01.361Z,2.05
2019-05-20T15:06:31.892Z,2.10
2019-05-20T15:09:02.365Z,3.42
2019-05-20T15:11:38.097Z,3.53
2019-05-20T15:14:06.306Z,1.77
2019-05-20T15:16:37.013Z,1.98
2019-05-20T15:19:07.572Z,0.70
2019-05-20T15:21:38.042Z,1.90
2019-05-20T15:24:08.598Z,19.82
2019-05-20T15:26:39.189Z,5.17
2019-05-20T15:29:26.617Z,4.03
2019-05-20T15:31:41.750Z,1.45
2019-05-20T15:34:12.270Z,1.47
2019-05-20T15:36:42.811Z,1.57
2019-05-20T15:39:13.363Z,1.75
2019-05-20T15:41:43.795Z,1.45
2019-05-20T15:44:14.274Z,3.92
2019-05-20T15:46:44.818Z,19.92
2019-05-20T15:49:15.241Z,1.25
2019-05-20T15:51:45.629Z,2.10
2019-05-20T15:54:16.148Z,3.27
2019-05-20T15:56:46.500Z,1.15
2019-05-20T15:59:16.905Z,1.22
2019-05-20T16:01:47.773Z,1.10
2019-05-20T16:04:18.269Z,5.85
2019-05-20T16:06:48.767Z,1.85
2019-05-20T16:09:19.308Z,1.40
2019-05-20T16:11:49.794Z,2.08
2019-05-20T16:14:21.024Z,1.87
2019-05-20T16:16:51.526Z,2.85
2019-05-20T16:19:22.110Z,2.15
2019-05-20T16:21:52.497Z,1.98
2019-05-20T16:24:22.906Z,1.20
2019-05-20T16:26:53.448Z,1.90
2019-05-20T16:29:24.981Z,0.85
2019-05-20T16:31:56.465Z,1.10
2019-05-20T16:34:26.849Z,1.15
2019-05-20T16:36:57.372Z,1.55
2019-05-20T16:39:30.811Z,3.50
2019-05-20T16:42:00.104Z,0.80
2019-05-20T16:44:30.780Z,1.55
2019-05-20T16:47:01.248Z,3.70
2019-05-20T16:49:31.805Z,2.62
2019-05-20T16:52:02.150Z,1.55
2019-05-20T16:54:32.605Z,1.35
2019-05-20T16:57:03.089Z,1.40
2019-05-20T16:59:33.520Z,2.30
2019-05-20T17:02:03.923Z,3.53
2019-05-20T17:04:34.286Z,1.35
2019-05-20T17:07:04.833Z,2.92
2019-05-20T17:09:35.272Z,2.12
2019-05-20T17:12:05.799Z,2.45
2019-05-20T17:14:36.333Z,4.87
2019-05-20T17:17:06.709Z,3.00
2019-05-20T17:19:37.195Z,2.20
2019-05-20T17:22:07.807Z,5.80
2019-05-20T17:24:38.215Z,1.45
2019-05-20T17:27:08.786Z,1.37
2019-05-20T17:29:39.343Z,2.20
2019-05-20T17:32:09.754Z,1.55
2019-05-20T17:34:40.320Z,2.58
2019-05-20T17:37:10.839Z,1.00
2019-05-20T17:39:41.390Z,1.20
2019-05-20T17:42:11.862Z,3.40
2019-05-20T17:44:43.462Z,2.60
2019-05-20T17:47:14.074Z,2.15
2019-05-20T17:49:44.546Z,2.52
2019-05-20T17:52:14.929Z,1.55
2019-05-20T17:54:45.450Z,1.42
2019-05-20T17:57:15.948Z,3.75
2019-05-20T17:59:46.402Z,5.45
2019-05-20T18:02:16.805Z,3.05
2019-05-20T18:04:47.330Z,3.42
2019-05-20T18:07:17.768Z,2.95
2019-05-20T18:09:50.294Z,4.20
2019-05-20T18:12:20.723Z,3.10
2019-05-20T18:14:54.726Z,3.50
2019-05-20T18:17:25.123Z,5.00
2019-05-20T18:19:55.600Z,3.92
2019-05-20T18:22:26.023Z,2.42
2019-05-20T18:24:56.373Z,2.20
2019-05-20T18:27:26.822Z,3.83
2019-05-20T18:29:57.200Z,3.17
2019-05-20T18:32:27.595Z,1.70
2019-05-20T18:34:57.980Z,1.70
2019-05-20T18:37:28.454Z,1.60
2019-05-20T18:40:12.746Z,3.12
2019-05-20T18:42:31.037Z,2.40
2019-05-20T18:45:01.422Z,2.52
2019-05-20T18:47:31.878Z,3.45
2019-05-20T18:50:02.255Z,1.77
2019-05-20T18:52:32.686Z,3.93
2019-05-20T18:55:03.127Z,3.15
2019-05-20T18:57:33.640Z,2.22
2019-05-20T19:00:06.162Z,2.17
2019-05-20T19:02:38.145Z,2.43
2019-05-20T19:05:08.749Z,1.40
2019-05-20T19:07:40.380Z,5.05
2019-05-20T19:10:12.364Z,1.77
2019-05-20T19:12:42.878Z,2.17
2019-05-20T19:15:14.518Z,2.67
2019-05-20T19:17:45.067Z,6.95
2019-05-20T19:20:16.499Z,2.07
2019-05-20T19:22:46.938Z,3.75
2019-05-20T19:25:17.407Z,1.72
2019-05-20T19:27:47.914Z,5.37
2019-05-20T19:30:18.297Z,4.00
2019-05-20T19:32:48.736Z,1.80
2019-05-20T19:35:19.291Z,2.60
2019-05-20T19:37:49.844Z,2.42
2019-05-20T19:40:20.243Z,4.97
2019-05-20T19:42:50.760Z,1.67
2019-05-20T19:45:21.166Z,2.92
2019-05-20T19:47:51.579Z,1.50
2019-05-20T19:50:22.291Z,7.42
2019-05-20T19:52:52.780Z,2.80
2019-05-20T19:55:23.351Z,1.70
2019-05-20T19:57:53.776Z,1.95
2019-05-20T20:00:24.414Z,1.75
2019-05-20T20:02:54.857Z,2.13
2019-05-20T20:05:25.297Z,1.92
2019-05-20T20:07:55.739Z,5.20
2019-05-20T20:10:26.181Z,1.83
2019-05-20T20:12:56.608Z,5.87
2019-05-20T20:15:28.017Z,2.80
2019-05-20T20:17:58.531Z,2.43
2019-05-20T20:20:28.994Z,3.10
2019-05-20T20:22:59.435Z,6.53
2019-05-20T20:25:29.826Z,1.53
2019-05-20T20:28:00.261Z,1.77
2019-05-20T20:30:30.786Z,3.13
2019-05-20T20:33:01.241Z,3.67
2019-05-20T20:35:37.949Z,4.53
2019-05-20T20:38:03.819Z,2.60
2019-05-20T20:40:34.341Z,4.07
2019-05-20T20:43:04.719Z,5.07
2019-05-20T20:45:35.253Z,4.03
2019-05-20T20:48:05.704Z,6.27
2019-05-20T20:50:36.200Z,4.50
2019-05-20T20:53:07.263Z,5.47
2019-05-20T20:55:37.758Z,3.43
2019-05-20T20:58:08.252Z,3.17
2019-05-20T21:00:38.656Z,5.57
2019-05-20T21:03:09.287Z,6.47
2019-05-20T21:05:39.746Z,4.75
2019-05-20T21:08:10.125Z,4.05
2019-05-20T21:10:40.653Z,4.20
2019-05-20T21:13:11.190Z,4.07
2019-05-20T21:15:41.719Z,3.85
2019-05-20T21:18:12.088Z,4.67
2019-05-20T21:20:42.457Z,9.70
2019-05-20T21:23:12.914Z,23.22
2019-05-20T21:25:43.453Z,11.13
2019-05-20T21:28:14.025Z,6.50
2019-05-20T21:30:44.411Z,6.80
2019-05-20T21:33:14.763Z,6.03
2019-05-20T21:35:45.735Z,7.77
2019-05-20T21:38:16.342Z,5.77
2019-05-20T21:40:46.712Z,4.60
2019-05-20T21:43:17.054Z,7.30
2019-05-20T21:45:47.508Z,8.37
2019-05-20T21:48:17.965Z,3.07
2019-05-20T21:50:48.426Z,3.30
2019-05-20T21:53:19.952Z,6.63
2019-05-20T21:55:50.383Z,4.07
2019-05-20T21:58:20.859Z,6.63
2019-05-20T22:00:54.657Z,5.97
2019-05-20T22:03:26.254Z,8.50
2019-05-20T22:05:56.776Z,4.10
2019-05-20T22:08:27.540Z,5.53
2019-05-20T22:10:58.185Z,10.57
2019-05-20T22:13:28.697Z,6.20
2019-05-20T22:15:59.334Z,5.97
2019-05-20T22:18:29.717Z,4.67
2019-05-20T22:21:00.169Z,3.63
2019-05-20T22:23:41.289Z,4.10
2019-05-20T22:26:11.738Z,5.40
2019-05-20T22:28:42.182Z,4.40
2019-05-20T22:31:12.648Z,6.37
2019-05-20T22:33:43.133Z,3.60
2019-05-20T22:36:13.588Z,3.73
2019-05-20T22:38:44.191Z,5.92
2019-05-20T22:41:14.558Z,5.57
2019-05-20T22:43:44.899Z,4.97
2019-05-20T22:46:15.265Z,3.70
2019-05-20T22:48:46.678Z,3.50
2019-05-20T22:51:17.103Z,4.00
2019-05-20T22:53:47.570Z,4.90
2019-05-20T22:56:18.000Z,5.03
2019-05-20T22:58:48.421Z,5.73
2019-05-20T23:01:18.813Z,2.77
2019-05-20T23:03:56.499Z,6.93
2019-05-20T23:06:21.366Z,3.43
2019-05-20T23:08:51.931Z,5.60
2019-05-20T23:11:22.429Z,6.27
2019-05-20T23:13:52.908Z,7.60
2019-05-20T23:16:23.270Z,7.73
2019-05-20T23:18:53.628Z,5.37
2019-05-20T23:21:24.074Z,5.97
2019-05-20T23:23:54.657Z,4.63
2019-05-20T23:26:25.121Z,6.83
2019-05-20T23:28:55.547Z,9.83
2019-05-20T23:31:25.990Z,4.87
2019-05-20T23:34:10.344Z,4.13
2019-05-20T23:36:28.670Z,6.93
2019-05-20T23:38:59.153Z,3.87
2019-05-20T23:41:29.693Z,4.72
2019-05-20T23:44:00.103Z,4.43
2019-05-20T23:46:30.476Z,5.73
2019-05-20T23:49:00.924Z,5.77
2019-05-20T23:51:31.380Z,5.13
2019-05-20T23:54:01.969Z,4.30
2019-05-20T23:56:32.483Z,3.67
2019-05-20T23:59:03.048Z,4.97
